Data for 01/04/2013

Time Sea-Level Adjusted Pressure Absolute Pressure Temperature Relative Humidity Dew Point   
(mb) (inHg) (mb) (inHg) (C) (F) (%) (C) (F)
00:05 1022 30.18 851 25.13 -7.8 17.9 63 -13.8 7.1
00:10 1022 30.18 851 25.13 -7.9 17.7 62 -13.9 6.9
00:15 1022 30.18 851 25.13 -7.7 18.1 61 -14 6.8
00:20 1022 30.18 851 25.13 -7.2 19 59 -14 6.9
00:25 1022 30.18 851 25.13 -6.9 19.6 59 -13.7 7.4
00:30 1022 30.18 851 25.13 -7.2 19.1 60 -13.6 7.5
00:35 1022 30.18 851 25.13 -6.7 20 58 -13.7 7.4
00:40 1022 30.18 851 25.13 -6.3 20.6 57 -13.5 7.8
00:45 1022 30.18 851 25.13 -6.2 20.9 58 -13.2 8.2
00:50 1022 30.18 851 25.13 -6.3 20.7 57 -13.5 7.7
00:55 1022 30.18 851 25.13 -7.7 18.2 62 -13.7 7.4
01:00 1022 30.18 851 25.13 -8.5 16.7 64 -14.2 6.5
01:05 1022 30.18 851 25.13 -8.4 16.9 63 -14.2 6.4
01:10 1022 30.18 851 25.13 -8.7 16.3 65 -14.3 6.3
01:15 1022 30.18 851 25.13 -9.1 15.6 67 -14.2 6.4
01:20 1022 30.18 851 25.13 -9.7 14.5 69 -14.5 5.9
01:25 1022 30.18 851 25.13 -10.4 13.3 71 -14.7 5.5
01:30 1022 30.18 851 25.13 -10.1 13.8 70 -14.7 5.6
01:35 1021 30.15 851 25.13 -9.7 14.6 68 -14.5 5.9
01:40 1021 30.15 851 25.13 -9.8 14.3 69 -14.6 5.8
01:45 1021 30.15 850 25.1 -9.4 15 67 -14.4 6.1
01:50 1021 30.15 850 25.1 -8.7 16.4 65 -14 6.7
01:55 1021 30.15 850 25.1 -8.1 17.4 62 -14.2 6.5
02:00 1021 30.15 851 25.13 -7.8 17.9 62 -13.9 7
02:05 1021 30.15 851 25.13 -7.9 17.8 61 -14.2 6.4
02:10 1022 30.18 851 25.13 -7.9 17.9 59 -14.6 5.8
02:15 1022 30.18 851 25.13 -8 17.7 59 -14.7 5.6
02:20 1022 30.18 851 25.13 -8.1 17.4 58 -14.9 5.2
02:25 1022 30.18 851 25.13 -8.2 17.3 58 -15 5
02:30 1022 30.18 851 25.13 -8.4 16.9 57 -15.4 4.3
02:35 1022 30.18 851 25.13 -8.8 16.2 59 -15.4 4.3
02:40 1022 30.18 851 25.13 -9.5 15 61 -15.7 3.7
02:45 1022 30.18 852 25.16 -9.6 14.8 61 -15.7 3.7
02:50 1022 30.18 852 25.16 -9.4 15 61 -15.6 3.9
02:55 1022 30.18 852 25.16 -9.2 15.4 61 -15.5 4.2
03:00 1022 30.18 852 25.16 -9.3 15.3 62 -15.3 4.5
03:05 1022 30.18 852 25.16 -9.1 15.6 62 -15.2 4.7
03:10 1022 30.18 852 25.16 -8.7 16.4 63 -14.5 5.9
03:15 1023 30.21 852 25.16 -8.8 16.3 64 -14.4 6.1
03:20 1022 30.18 852 25.16 -8.6 16.6 64 -14.3 6.3
03:25 1022 30.18 852 25.16 -8.5 16.7 63 -14.4 6.1
03:30 1023 30.21 852 25.16 -8.1 17.5 61 -14.3 6.2
03:35 1023 30.21 852 25.16 -7.7 18.1 60 -14.1 6.5
03:40 1023 30.21 852 25.16 -7.7 18.2 58 -14.6 5.7
03:45 1023 30.21 852 25.16 -7.2 19.1 57 -14.4 6.2
03:50 1023 30.21 852 25.16 -7.6 18.4 60 -14 6.7
03:55 1023 30.21 852 25.16 -7.9 17.7 59 -14.7 5.6
04:00 1022 30.18 852 25.16 -7.9 17.7 59 -14.5 5.8
04:05 1022 30.18 852 25.16 -8 17.6 59 -14.7 5.5
04:10 1022 30.18 852 25.16 -8.5 16.8 61 -14.7 5.5
04:15 1022 30.18 852 25.16 -8.8 16.2 61 -15 5.1
04:20 1022 30.18 852 25.16 -8.3 17 59 -15 5.1
04:25 1022 30.18 852 25.16 -8 17.6 58 -14.8 5.3
04:30 1022 30.18 852 25.16 -7.8 17.9 58 -14.8 5.4
04:35 1022 30.18 852 25.16 -7.8 18 58 -14.7 5.5
04:40 1022 30.18 851 25.13 -8.1 17.5 60 -14.5 5.9
04:45 1022 30.18 852 25.16 -8.2 17.3 59 -14.8 5.4
04:50 1022 30.18 852 25.16 -8.1 17.4 59 -14.8 5.4
04:55 1022 30.18 852 25.16 -8.3 17.1 59 -14.9 5.2
05:00 1022 30.18 852 25.16 -8 17.6 58 -15 5
05:05 1022 30.18 852 25.16 -7.7 18.1 57 -14.9 5.2
05:10 1022 30.18 851 25.13 -7.5 18.5 56 -14.9 5.1
05:15 1022 30.18 852 25.16 -7.3 18.8 54 -15 4.9
05:20 1022 30.18 852 25.16 -7 19.3 54 -14.9 5.2
05:25 1022 30.18 852 25.16 -7.1 19.2 55 -14.7 5.5
05:30 1022 30.18 852 25.16 -7.1 19.2 56 -14.6 5.8
05:35 1022 30.18 852 25.16 -7.2 19.1 56 -14.5 5.9
05:40 1023 30.21 852 25.16 -7.2 19 56 -14.7 5.6
05:45 1023 30.21 852 25.16 -7.2 19 57 -14.4 6.1
05:50 1022 30.18 852 25.16 -7.2 19 56 -14.5 5.8
05:55 1022 30.18 852 25.16 -7.2 19 56 -14.5 6
06:00 1023 30.21 852 25.16 -7.2 19.1 56 -14.6 5.7
06:05 1023 30.21 852 25.16 -7 19.4 56 -14.4 6.1
06:10 1023 30.21 852 25.16 -6.8 19.8 55 -14.5 6
06:15 1023 30.21 852 25.16 -6.5 20.2 53 -14.5 5.9
06:20 1023 30.21 852 25.16 -6.4 20.5 53 -14.4 6
06:25 1023 30.21 852 25.16 -6.3 20.7 53 -14.4 6.1
06:30 1023 30.21 852 25.16 -6.3 20.6 54 -14.2 6.5
06:35 1023 30.21 852 25.16 -6.6 20.2 57 -13.7 7.3
06:40 1023 30.21 852 25.16 -7 19.3 56 -14.4 6
06:45 1023 30.21 852 25.16 -7.1 19.3 55 -14.7 5.5
06:50 1023 30.21 852 25.16 -7.2 19.1 56 -14.5 5.9
06:55 1023 30.21 852 25.16 -7.2 19.1 56 -14.6 5.8
07:00 1023 30.21 852 25.16 -7.3 19 57 -14.5 6
07:05 1023 30.21 852 25.16 -7.2 19.1 56 -14.4 6
07:10 1023 30.21 852 25.16 -7.4 18.7 58 -14.3 6.3
07:15 1023 30.21 852 25.16 -8 17.6 61 -14.2 6.4
07:20 1023 30.21 852 25.16 -8.3 17 61 -14.6 5.6
07:25 1023 30.21 852 25.16 -8.3 17 61 -14.6 5.6
07:30 1023 30.21 852 25.16 -8.4 16.8 62 -14.4 6.1
07:35 1023 30.21 852 25.16 -8.1 17.4 62 -14.1 6.6
07:40 1023 30.21 852 25.16 -7.9 17.8 68 -12.8 8.9
07:45 1023 30.21 852 25.16 -8.1 17.4 68 -13 8.6
07:50 1023 30.21 852 25.16 -8.3 17.1 68 -13.2 8.3
07:55 1023 30.21 852 25.16 -8.7 16.3 68 -13.7 7.4
08:00 1023 30.21 852 25.16 -8.7 16.4 68 -13.5 7.7
08:05 1023 30.21 852 25.16 -8.3 17 66 -13.5 7.7
08:10 1023 30.21 852 25.16 -8.5 16.7 68 -13.4 7.8
08:15 1023 30.21 852 25.16 -8.4 16.9 66 -13.7 7.4
08:20 1023 30.21 852 25.16 -8.3 17.1 66 -13.5 7.7
08:25 1023 30.21 852 25.16 -8.4 16.8 68 -13.3 8.1
08:30 1023 30.21 852 25.16 -8.5 16.8 67 -13.5 7.8
08:35 1023 30.21 852 25.16 -8.6 16.5 67 -13.6 7.5
08:40 1023 30.21 852 25.16 -8.2 17.3 62 -14.2 6.4
08:45 1023 30.21 852 25.16 -8.5 16.8 63 -14.4 6.1
08:50 1023 30.21 852 25.16 -8.4 16.9 61 -14.6 5.7
08:55 1023 30.21 852 25.16 -8.4 16.9 63 -14.3 6.3
09:00 1023 30.21 852 25.16 -8.4 16.9 60 -14.7 5.5
09:05 1023 30.21 852 25.16 -8.4 17 62 -14.4 6.1
09:10 1023 30.21 852 25.16 -8.4 17 63 -14.2 6.5
09:15 1023 30.21 852 25.16 -8.4 16.8 63 -14.3 6.2
09:20 1023 30.21 852 25.16 -8.5 16.8 63 -14.4 6.1
09:25 1023 30.21 852 25.16 -8.3 17 60 -14.7 5.5
09:30 1023 30.21 852 25.16 -8.1 17.5 60 -14.4 6
09:35 1023 30.21 852 25.16 -7.9 17.7 59 -14.6 5.8
09:40 1023 30.21 852 25.16 -7.7 18.1 59 -14.5 5.9
09:45 1023 30.21 852 25.16 -7.9 17.8 60 -14.4 6.2
09:50 1023 30.21 852 25.16 -8.2 17.3 60 -14.7 5.5
09:55 1023 30.21 852 25.16 -8 17.7 61 -14.2 6.5
10:00 1023 30.21 852 25.16 -8.5 16.7 62 -14.6 5.8
10:05 1023 30.21 852 25.16 -8.3 17 60 -14.9 5.2
10:10 1023 30.21 852 25.16 -8.1 17.4 58 -15.1 4.8
10:15 1023 30.21 852 25.16 -7.8 18.1 56 -15 5
10:20 1023 30.21 852 25.16 -7.5 18.5 55 -15 5
10:25 1023 30.21 852 25.16 -7.2 19.1 54 -15 5
10:30 1023 30.21 853 25.19 -6.7 20 52 -15 5
10:35 1023 30.21 853 25.19 -6.1 21 51 -14.7 5.5
10:40 1023 30.21 853 25.19 -5.6 22 50 -14.5 6
10:45 1023 30.21 853 25.19 -5.8 21.6 50 -14.6 5.6
10:50 1024 30.24 853 25.19 -5.5 22.1 49 -14.6 5.7
10:55 1024 30.24 853 25.19 -5.2 22.7 48 -14.6 5.8
11:00 1024 30.24 853 25.19 -4.7 23.5 46 -14.7 5.5
11:05 1024 30.24 853 25.19 -3.9 25 44 -14.3 6.2
11:10 1024 30.24 853 25.19 -3.4 25.9 42 -14.5 5.9
11:15 1024 30.24 853 25.19 -3.1 26.5 42 -14.4 6.1
11:20 1024 30.24 853 25.19 -2.4 27.6 39 -14.6 5.8
11:25 1024 30.24 853 25.19 -2 28.4 39 -14.1 6.5
11:30 1024 30.24 853 25.19 -1.8 28.7 39 -14.1 6.6
11:35 1024 30.24 853 25.19 -1.7 28.9 38 -14.1 6.5
11:40 1024 30.24 853 25.19 -1.4 29.5 38 -14.1 6.6
11:45 1024 30.24 853 25.19 -1.8 28.8 41 -13.4 8
11:50 1024 30.24 853 25.19 -2.3 27.9 42 -13.6 7.6
11:55 1024 30.24 853 25.19 -2.3 27.9 40 -14.2 6.4
12:00 1024 30.24 853 25.19 -1.9 28.5 39 -14.2 6.5
12:05 1024 30.24 853 25.19 -1.6 29.1 38 -14.2 6.4
12:10 1024 30.24 853 25.19 -1.5 29.2 38 -14.2 6.4
12:15 1024 30.24 853 25.19 -1.9 28.6 37 -14.8 5.3
12:20 1024 30.24 853 25.19 -1.1 30 36 -14.2 6.4
12:25 1024 30.24 853 25.19 -0.7 30.7 34 -14.8 5.3
12:30 1023 30.21 853 25.19 -0.9 30.4 35 -14.6 5.7
12:35 1023 30.21 852 25.16 -1 30.2 35 -14.7 5.5
12:40 1023 30.21 852 25.16 -0.6 30.9 34 -14.5 6
12:45 1023 30.21 852 25.16 -0.7 30.8 33 -14.9 5.2
12:50 1023 30.21 852 25.16 -0.5 31 34 -14.7 5.5
12:55 1023 30.21 852 25.16 0.4 32.6 32 -14.6 5.7
13:00 1023 30.21 852 25.16 0.8 33.5 33 -13.8 7.1
13:05 1023 30.21 852 25.16 1.1 34 32 -13.8 7.1
13:10 1023 30.21 852 25.16 0.8 33.4 33 -13.9 6.9
13:15 1023 30.21 852 25.16 0.5 32.9 35 -13.4 7.9
13:20 1023 30.21 852 25.16 1.1 33.9 33 -13.6 7.5
13:25 1023 30.21 852 25.16 0.6 33.1 34 -13.6 7.5
13:30 1022 30.18 852 25.16 0.3 32.5 32 -14.4 6.1
13:35 1022 30.18 852 25.16 -0.2 31.7 33 -14.5 5.8
13:40 1022 30.18 852 25.16 -0.5 31.1 35 -14.1 6.6
13:45 1022 30.18 851 25.13 -0.4 31.4 34 -14.5 5.9
13:50 1022 30.18 851 25.13 0.7 33.2 32 -14.1 6.5
13:55 1022 30.18 851 25.13 0.8 33.4 31 -14.4 6.1
14:00 1022 30.18 851 25.13 0.9 33.6 30 -14.8 5.3
14:05 1022 30.18 851 25.13 1 33.9 31 -14.3 6.3
14:10 1022 30.18 851 25.13 -0.3 31.4 35 -13.9 7
14:15 1022 30.18 851 25.13 -0.3 31.5 33 -14.5 5.8
14:20 1022 30.18 851 25.13 0.1 32.2 34 -14.2 6.5
14:25 1022 30.18 851 25.13 0.7 33.3 31 -14.6 5.7
14:30 1022 30.18 851 25.13 1.2 34.2 31 -14.3 6.2
14:35 1022 30.18 851 25.13 1.6 34.9 29 -14.5 6
14:40 1022 30.18 851 25.13 1.5 34.7 31 -13.8 7.1
14:45 1022 30.18 851 25.13 0.9 33.6 31 -14.3 6.3
14:50 1022 30.18 851 25.13 0.5 32.9 31 -14.7 5.5
14:55 1022 30.18 851 25.13 -0.1 31.8 33 -14.6 5.7
15:00 1022 30.18 851 25.13 -1 30.2 33 -15.4 4.3
15:05 1022 30.18 851 25.13 -1.1 30 35 -14.9 5.2
15:10 1022 30.18 851 25.13 -0.1 31.9 33 -14.5 5.9
15:15 1022 30.18 851 25.13 0.6 33 32 -14.2 6.4
15:20 1022 30.18 851 25.13 0.9 33.7 32 -13.9 6.9
15:25 1022 30.18 851 25.13 0.6 33.1 32 -14.2 6.5
15:30 1022 30.18 851 25.13 0.8 33.5 32 -14.1 6.7
15:35 1022 30.18 851 25.13 0.8 33.5 32 -14 6.8
15:40 1022 30.18 851 25.13 0.6 33.1 32 -14.2 6.5
15:45 1022 30.18 851 25.13 0.6 33.1 33 -13.9 7.1
15:50 1022 30.18 851 25.13 0.2 32.3 34 -13.8 7.1
15:55 1022 30.18 851 25.13 0.3 32.6 37 -12.8 8.9
16:00 1022 30.18 852 25.16 0 32 35 -13.6 7.6
16:05 1022 30.18 852 25.16 -0.3 31.5 38 -13 8.6
16:10 1022 30.18 852 25.16 -0.7 30.7 39 -13 8.6
16:15 1022 30.18 852 25.16 -1 30.1 37 -14 6.9
16:20 1022 30.18 852 25.16 -0.8 30.5 38 -13.6 7.5
16:25 1022 30.18 852 25.16 -0.7 30.7 37 -13.7 7.4
16:30 1022 30.18 852 25.16 -1 30.2 38 -13.7 7.3
16:35 1022 30.18 852 25.16 -1.3 29.7 40 -13.3 8
16:40 1022 30.18 851 25.13 -1.2 29.9 39 -13.3 8.1
16:45 1022 30.18 851 25.13 -0.9 30.4 40 -12.7 9.1
16:50 1022 30.18 851 25.13 -0.6 30.9 39 -12.8 9
16:55 1022 30.18 851 25.13 -0.7 30.8 38 -13.3 8.1
17:00 1022 30.18 851 25.13 -0.9 30.4 37 -13.9 7
17:05 1022 30.18 851 25.13 -0.5 31.1 37 -13.6 7.4
17:10 1022 30.18 851 25.13 -0.2 31.7 36 -13.4 7.8
17:15 1022 30.18 851 25.13 -0.4 31.3 36 -13.9 7
17:20 1022 30.18 851 25.13 -0.3 31.5 34 -14.3 6.2
17:25 1022 30.18 851 25.13 0.1 32.2 37 -13.1 8.5
17:30 1022 30.18 851 25.13 -0.4 31.2 39 -12.8 8.9
17:35 1022 30.18 851 25.13 -0.8 30.5 39 -13.2 8.2
17:40 1022 30.18 851 25.13 -1.1 30 40 -13 8.6
17:45 1022 30.18 851 25.13 -1.7 29 43 -12.8 8.9
17:50 1022 30.18 851 25.13 -2.3 27.9 44 -13.1 8.4
17:55 1022 30.18 851 25.13 -2.3 27.8 43 -13.4 7.8
18:00 1022 30.18 851 25.13 -2.5 27.5 43 -13.3 8
18:05 1022 30.18 851 25.13 -2.7 27.1 44 -13.4 7.8
18:10 1022 30.18 851 25.13 -2.7 27.1 45 -13.1 8.5
18:15 1022 30.18 851 25.13 -2.6 27.4 46 -12.7 9.1
18:20 1022 30.18 851 25.13 -2.6 27.4 43 -13.6 7.5
18:25 1022 30.18 851 25.13 -2.9 26.9 42 -14.1 6.5
18:30 1022 30.18 851 25.13 -3 26.7 41 -14.4 6.1
18:35 1022 30.18 851 25.13 -3 26.6 41 -14.5 5.9
18:40 1022 30.18 851 25.13 -2.8 26.9 41 -14.3 6.2
18:45 1022 30.18 851 25.13 -2.7 27.1 38 -15 4.9
18:50 1022 30.18 851 25.13 -2.7 27.2 41 -14 6.7
18:55 1022 30.18 851 25.13 -2.8 27 39 -14.9 5.2
19:00 1022 30.18 851 25.13 -2.6 27.3 39 -14.9 5.2
19:05 1022 30.18 851 25.13 -2.3 27.9 39 -14.6 5.7
19:10 1022 30.18 851 25.13 -2.8 26.9 43 -13.8 7.1
19:15 1022 30.18 851 25.13 -3 26.7 42 -14.1 6.6
19:20 1022 30.18 851 25.13 -3 26.5 43 -14 6.8
19:25 1022 30.18 851 25.13 -3.4 25.9 45 -13.8 7.2
19:30 1022 30.18 851 25.13 -4.1 24.6 48 -13.5 7.6
19:35 1022 30.18 851 25.13 -4.6 23.7 48 -13.9 6.9
19:40 1022 30.18 851 25.13 -4.5 23.9 50 -13.3 8
19:45 1022 30.18 851 25.13 -4.8 23.5 52 -13.2 8.2
19:50 1022 30.18 851 25.13 -4.9 23.3 55 -12.5 9.5
19:55 1022 30.18 851 25.13 -4.8 23.3 53 -13 8.6
20:00 1022 30.18 851 25.13 -4.8 23.4 52 -13.2 8.2
20:05 1022 30.18 851 25.13 -4.7 23.5 53 -13 8.5
20:10 1022 30.18 851 25.13 -5 23 54 -12.9 8.7
20:15 1022 30.18 851 25.13 -5.3 22.4 56 -12.8 8.9
20:20 1022 30.18 852 25.16 -5.5 22.1 55 -13.2 8.2
20:25 1022 30.18 852 25.16 -5.9 21.3 57 -13.1 8.4
20:30 1022 30.18 852 25.16 -6 21.2 57 -13.2 8.2
20:35 1022 30.18 852 25.16 -6.1 21 58 -13.1 8.4
20:40 1022 30.18 852 25.16 -6 21.1 57 -13.2 8.3
20:45 1022 30.18 852 25.16 -6 21.1 58 -13.1 8.4
20:50 1022 30.18 852 25.16 -6 21.2 57 -13.2 8.2
20:55 1022 30.18 852 25.16 -5.6 21.9 54 -13.6 7.5
21:00 1022 30.18 852 25.16 -5.2 22.6 51 -13.9 7
21:05 1023 30.21 852 25.16 -4.9 23.2 50 -13.9 7
21:10 1023 30.21 852 25.16 -4.9 23.2 50 -13.8 7.1
21:15 1023 30.21 852 25.16 -4.9 23.2 54 -12.8 9
21:20 1023 30.21 852 25.16 -4.9 23.2 55 -12.7 9.2
21:25 1023 30.21 852 25.16 -5.1 22.9 56 -12.7 9.2
21:30 1023 30.21 852 25.16 -5.2 22.6 56 -12.7 9.1
21:35 1023 30.21 852 25.16 -5.4 22.2 55 -13.1 8.4
21:40 1023 30.21 852 25.16 -6 21.3 58 -12.9 8.9
21:45 1023 30.21 852 25.16 -6.6 20.1 61 -13 8.6
21:50 1023 30.21 852 25.16 -6.8 19.8 61 -13 8.5
21:55 1023 30.21 852 25.16 -6.3 20.6 63 -12.2 10
22:00 1023 30.21 852 25.16 -6.2 20.9 62 -12.4 9.7
22:05 1023 30.21 852 25.16 -6 21.1 59 -12.9 8.8
22:10 1023 30.21 852 25.16 -6.3 20.7 61 -12.7 9.1
22:15 1023 30.21 852 25.16 -6.3 20.7 60 -12.9 8.9
22:20 1023 30.21 852 25.16 -6.4 20.5 61 -12.8 8.9
22:25 1023 30.21 852 25.16 -6.7 20 61 -13 8.7
22:30 1023 30.21 852 25.16 -6.3 20.7 60 -12.9 8.9
22:35 1023 30.21 852 25.16 -6.3 20.8 61 -12.6 9.3
22:40 1023 30.21 852 25.16 -6.4 20.4 61 -12.9 8.9
22:45 1023 30.21 852 25.16 -5.9 21.3 59 -12.7 9.2
22:50 1023 30.21 852 25.16 -5.2 22.7 54 -13.1 8.4
22:55 1023 30.21 852 25.16 -5.1 22.8 58 -12.2 10.1
23:00 1023 30.21 852 25.16 -5.3 22.5 59 -12.2 10
23:05 1023 30.21 852 25.16 -5.3 22.4 57 -12.7 9.2
23:10 1023 30.21 852 25.16 -5.7 21.8 60 -12.2 10.1
23:15 1023 30.21 852 25.16 -5.4 22.2 57 -12.6 9.3
23:20 1023 30.21 852 25.16 -5.2 22.6 56 -12.7 9.1
23:25 1023 30.21 852 25.16 -5.6 21.9 57 -12.8 9
23:30 1023 30.21 852 25.16 -5.5 22.2 59 -12.2 10
23:35 1023 30.21 852 25.16 -4.7 23.6 57 -11.9 10.5
23:40 1023 30.21 853 25.19 -4.6 23.8 56 -12.1 10.2
23:45 1023 30.21 852 25.16 -4.6 23.8 54 -12.4 9.6
23:50 1023 30.21 852 25.16 -4.2 24.5 54 -12.1 10.3
23:55 1023 30.21 852 25.16 -4 24.8 52 -12.4 9.7
24:00 1023 30.21 852 25.16 -3.5 25.8 51 -12.3 9.8